Time;durP1;ratioP1;P1;durP2;ratioP2;P2;SDS_P1;SDS_P2;PMS_P1;PMS_P2;Temp;Humidity;BMP_temperature;BMP_pressure;BME280_temperature;BME280_humidity;BME280_pressure;Samples;Min_cycle;Max_cycle;Signal;HPM_P1;HPM_P2
2021/06/19 00:00:51;;;;;;;5.24;1.49;;;;;;;;;;357390;150;857782;-62
2021/06/19 00:01:55;;;;;;;4.81;1.59;;;;;;;;;;356554;149;864911;-62
2021/06/19 00:02:57;;;;;;;7.01;1.39;;;;;;;;;;356480;148;859485;-61
2021/06/19 00:03:58;;;;;;;3.35;1.52;;;;;;;;;;357333;148;859491;-62
2021/06/19 00:05:00;;;;;;;4.86;1.63;;;;;;;;;;352053;149;867153;-62
2021/06/19 00:06:01;;;;;;;4.30;1.41;;;;;;;;;;356494;150;865585;-62
2021/06/19 00:07:03;;;;;;;3.09;1.28;;;;;;;;;;358303;149;864859;-62
2021/06/19 00:08:05;;;;;;;3.84;1.56;;;;;;;;;;355540;149;857391;-62
2021/06/19 00:09:06;;;;;;;2.36;1.24;;;;;;;;;;357480;150;865688;-62
2021/06/19 00:10:09;;;;;;;6.99;1.65;;;;;;;;;;355509;149;857512;-62
2021/06/19 00:11:11;;;;;;;5.31;1.99;;;;;;;;;;357034;150;859407;-62
2021/06/19 00:12:15;;;;;;;3.86;1.31;;;;;;;;;;357512;150;857275;-61
2021/06/19 00:13:16;;;;;;;2.47;1.36;;;;;;;;;;352857;149;857298;-63
2021/06/19 00:14:18;;;;;;;5.43;1.72;;;;;;;;;;349309;154;857409;-62
2021/06/19 00:15:20;;;;;;;4.13;1.47;;;;;;;;;;354648;149;865996;-62
2021/06/19 00:16:23;;;;;;;5.46;1.37;;;;;;;;;;356009;149;858755;-62
2021/06/19 00:17:25;;;;;;;2.73;1.53;;;;;;;;;;356363;150;866529;-62
2021/06/19 00:18:26;;;;;;;5.41;1.49;;;;;;;;;;353173;149;857711;-62
2021/06/19 00:19:28;;;;;;;6.60;1.08;;;;;;;;;;355887;150;857283;-62
2021/06/19 00:20:30;;;;;;;4.79;1.50;;;;;;;;;;356470;150;857281;-62
2021/06/19 00:21:32;;;;;;;2.29;1.40;;;;;;;;;;355179;149;857320;-62
2021/06/19 00:22:33;;;;;;;2.48;1.31;;;;;;;;;;355951;150;857220;-62
2021/06/19 00:23:35;;;;;;;2.85;1.32;;;;;;;;;;357218;150;857216;-62
2021/06/19 00:24:37;;;;;;;5.57;1.56;;;;;;;;;;359082;149;857234;-62
2021/06/19 00:25:39;;;;;;;4.84;1.44;;;;;;;;;;359509;149;859043;-63
2021/06/19 00:26:42;;;;;;;5.30;1.66;;;;;;;;;;356504;149;864535;-62
2021/06/19 00:27:44;;;;;;;3.26;1.40;;;;;;;;;;357173;150;857417;-63
2021/06/19 00:28:46;;;;;;;3.85;1.45;;;;;;;;;;358417;149;859759;-63
2021/06/19 00:29:48;;;;;;;7.92;1.30;;;;;;;;;;359467;149;858494;-63
2021/06/19 00:30:51;;;;;;;3.15;1.61;;;;;;;;;;360599;147;857170;-62
2021/06/19 00:31:52;;;;;;;3.84;1.47;;;;;;;;;;360558;147;857414;-62
2021/06/19 00:32:54;;;;;;;5.41;1.39;;;;;;;;;;358769;149;859453;-62
2021/06/19 00:33:56;;;;;;;4.29;1.21;;;;;;;;;;358131;149;858754;-63
2021/06/19 00:34:58;;;;;;;3.43;1.44;;;;;;;;;;356300;149;857229;-62
2021/06/19 00:35:59;;;;;;;3.69;1.36;;;;;;;;;;361157;149;857320;-62
2021/06/19 00:37:01;;;;;;;4.78;1.54;;;;;;;;;;359782;149;865769;-62
2021/06/19 00:38:02;;;;;;;8.86;1.50;;;;;;;;;;358033;149;857478;-62
2021/06/19 00:39:04;;;;;;;4.14;1.55;;;;;;;;;;359463;150;859721;-62
2021/06/19 00:40:08;;;;;;;2.84;1.36;;;;;;;;;;355754;149;866291;-62
2021/06/19 00:41:10;;;;;;;6.66;1.54;;;;;;;;;;355792;149;858102;-62
2021/06/19 00:42:11;;;;;;;6.34;1.61;;;;;;;;;;357718;150;857291;-62
2021/06/19 00:43:13;;;;;;;2.41;1.28;;;;;;;;;;357653;149;857223;-62
2021/06/19 00:44:16;;;;;;;2.77;1.36;;;;;;;;;;360275;149;857485;-62
2021/06/19 00:45:18;;;;;;;4.46;1.49;;;;;;;;;;357996;149;865747;-62
2021/06/19 00:46:21;;;;;;;2.32;1.26;;;;;;;;;;359742;148;857328;-62
2021/06/19 00:47:24;;;;;;;5.51;1.61;;;;;;;;;;361275;149;859206;-62
2021/06/19 00:48:25;;;;;;;2.93;1.37;;;;;;;;;;359027;148;857415;-62
2021/06/19 00:49:27;;;;;;;4.89;1.34;;;;;;;;;;352609;152;857342;-62
2021/06/19 00:50:30;;;;;;;6.71;1.63;;;;;;;;;;352409;150;864634;-62
2021/06/19 00:51:31;;;;;;;3.80;1.49;;;;;;;;;;356579;149;857266;-62
2021/06/19 00:52:33;;;;;;;2.87;1.76;;;;;;;;;;358276;150;857280;-62
2021/06/19 00:53:35;;;;;;;3.61;1.77;;;;;;;;;;359363;149;858866;-62
2021/06/19 00:54:36;;;;;;;4.85;1.61;;;;;;;;;;354793;149;859529;-62
2021/06/19 00:55:38;;;;;;;5.74;1.58;;;;;;;;;;360061;148;859445;-62
2021/06/19 00:56:40;;;;;;;4.35;1.94;;;;;;;;;;358411;149;858900;-62
2021/06/19 00:57:42;;;;;;;4.71;1.54;;;;;;;;;;360704;149;859253;-62
2021/06/19 00:58:43;;;;;;;3.35;1.66;;;;;;;;;;359288;149;857389;-62
2021/06/19 00:59:45;;;;;;;4.29;1.62;;;;;;;;;;357665;149;857298;-62
2021/06/19 01:00:47;;;;;;;4.43;1.50;;;;;;;;;;358080;150;857386;-62
2021/06/19 01:01:48;;;;;;;3.71;1.56;;;;;;;;;;359252;149;857775;-62
2021/06/19 01:02:53;;;;;;;5.00;1.80;;;;;;;;;;357550;149;857185;-62
2021/06/19 01:03:55;;;;;;;3.43;1.52;;;;;;;;;;358187;149;858092;-63
2021/06/19 01:04:56;;;;;;;4.92;1.59;;;;;;;;;;358497;149;858909;-63
2021/06/19 01:05:58;;;;;;;3.77;1.73;;;;;;;;;;358558;150;857579;-63
2021/06/19 01:07:00;;;;;;;5.19;1.83;;;;;;;;;;358527;150;858163;-62
2021/06/19 01:08:01;;;;;;;3.98;1.59;;;;;;;;;;357283;149;865906;-62
2021/06/19 01:09:04;;;;;;;5.31;1.79;;;;;;;;;;359014;149;857428;-62
2021/06/19 01:10:06;;;;;;;5.21;1.75;;;;;;;;;;357943;149;857447;-63
2021/06/19 01:11:08;;;;;;;5.82;1.66;;;;;;;;;;358890;147;864834;-62
2021/06/19 01:12:09;;;;;;;4.99;1.53;;;;;;;;;;359681;148;859351;-62
2021/06/19 01:13:11;;;;;;;3.24;1.63;;;;;;;;;;358159;148;857469;-62
2021/06/19 01:14:12;;;;;;;4.63;1.77;;;;;;;;;;358720;149;857210;-62
2021/06/19 01:15:14;;;;;;;3.80;1.56;;;;;;;;;;359473;148;857253;-62
2021/06/19 01:16:17;;;;;;;5.59;2.01;;;;;;;;;;359681;149;857260;-62
2021/06/19 01:17:19;;;;;;;5.61;1.66;;;;;;;;;;359366;150;857264;-62
2021/06/19 01:18:21;;;;;;;5.16;1.51;;;;;;;;;;358487;149;858051;-62
2021/06/19 01:19:22;;;;;;;3.60;1.75;;;;;;;;;;355813;148;858024;-62
2021/06/19 01:20:26;;;;;;;4.65;1.76;;;;;;;;;;359919;148;858596;-62
2021/06/19 01:21:29;;;;;;;3.25;1.59;;;;;;;;;;357829;149;857296;-62
2021/06/19 01:22:31;;;;;;;4.36;2.29;;;;;;;;;;355515;150;860012;-62
2021/06/19 01:23:32;;;;;;;5.56;1.66;;;;;;;;;;358791;149;857251;-62
2021/06/19 01:24:34;;;;;;;5.32;1.68;;;;;;;;;;354487;149;865948;-64
2021/06/19 01:25:38;;;;;;;3.41;1.75;;;;;;;;;;358957;150;857218;-65
2021/06/19 01:26:39;;;;;;;4.02;1.37;;;;;;;;;;358030;148;857499;-62
2021/06/19 01:27:41;;;;;;;3.91;1.89;;;;;;;;;;356821;151;864923;-62
2021/06/19 01:28:43;;;;;;;13.11;1.68;;;;;;;;;;357155;149;864813;-61
2021/06/19 01:29:44;;;;;;;3.75;1.56;;;;;;;;;;354595;149;857418;-61
2021/06/19 01:30:48;;;;;;;2.61;1.53;;;;;;;;;;355906;151;864943;-61
2021/06/19 01:31:49;;;;;;;6.57;1.86;;;;;;;;;;355934;149;857253;-61
2021/06/19 01:32:51;;;;;;;3.50;1.74;;;;;;;;;;355563;151;864674;-61
2021/06/19 01:33:52;;;;;;;3.78;2.06;;;;;;;;;;353743;151;857370;-62
2021/06/19 01:34:54;;;;;;;3.63;1.55;;;;;;;;;;356456;149;864633;-62
2021/06/19 01:35:56;;;;;;;3.41;1.41;;;;;;;;;;356359;151;857327;-63
2021/06/19 01:36:57;;;;;;;7.55;1.66;;;;;;;;;;353547;149;866231;-62
2021/06/19 01:37:59;;;;;;;3.29;1.50;;;;;;;;;;356451;148;866596;-62
2021/06/19 01:39:01;;;;;;;4.24;1.54;;;;;;;;;;355901;151;858971;-62
2021/06/19 01:40:03;;;;;;;3.57;1.57;;;;;;;;;;351896;150;858846;-62
2021/06/19 01:41:07;;;;;;;2.25;1.80;;;;;;;;;;356422;149;858617;-61
2021/06/19 01:42:09;;;;;;;2.54;1.47;;;;;;;;;;351707;150;865709;-62
2021/06/19 01:43:10;;;;;;;3.22;1.47;;;;;;;;;;354285;149;857783;-64
2021/06/19 01:44:12;;;;;;;1.94;1.48;;;;;;;;;;357155;151;858092;-62
2021/06/19 01:45:14;;;;;;;2.55;1.51;;;;;;;;;;354740;148;857239;-64
2021/06/19 01:46:17;;;;;;;6.01;1.69;;;;;;;;;;355225;150;857174;-62
2021/06/19 01:47:19;;;;;;;4.39;1.50;;;;;;;;;;359243;149;858505;-62
2021/06/19 01:48:20;;;;;;;4.15;1.82;;;;;;;;;;355095;150;857344;-61
2021/06/19 01:49:24;;;;;;;3.38;1.81;;;;;;;;;;354599;151;857292;-61
2021/06/19 01:50:26;;;;;;;5.38;1.53;;;;;;;;;;353487;151;857142;-61
2021/06/19 01:51:27;;;;;;;7.99;1.67;;;;;;;;;;356602;149;858358;-64
2021/06/19 01:52:29;;;;;;;4.14;1.62;;;;;;;;;;356347;151;857333;-64
2021/06/19 01:53:31;;;;;;;6.57;1.84;;;;;;;;;;356328;149;857830;-64
2021/06/19 01:54:39;;;;;;;6.41;1.81;;;;;;;;;;354566;149;857185;-64
2021/06/19 01:55:41;;;;;;;7.71;1.72;;;;;;;;;;355728;150;864975;-64
2021/06/19 01:56:43;;;;;;;3.71;1.69;;;;;;;;;;354863;149;858928;-64
2021/06/19 01:57:44;;;;;;;5.09;1.58;;;;;;;;;;357173;151;857371;-63
2021/06/19 01:58:46;;;;;;;2.89;1.61;;;;;;;;;;356680;150;857327;-63
2021/06/19 01:59:47;;;;;;;5.07;1.39;;;;;;;;;;356891;149;866166;-63
2021/06/19 02:00:49;;;;;;;4.47;1.93;;;;;;;;;;357185;151;858619;-63
2021/06/19 02:01:55;;;;;;;5.12;2.07;;;;;;;;;;356989;151;859337;-63
2021/06/19 02:02:56;;;;;;;3.79;1.66;;;;;;;;;;356450;150;858083;-63
2021/06/19 02:03:58;;;;;;;2.02;1.76;;;;;;;;;;357171;151;857294;-63
2021/06/19 02:04:59;;;;;;;5.12;1.89;;;;;;;;;;356360;150;858822;-63
2021/06/19 02:06:01;;;;;;;9.98;1.74;;;;;;;;;;356640;151;858618;-63
2021/06/19 02:07:03;;;;;;;6.31;1.74;;;;;;;;;;354179;151;865956;-62
2021/06/19 02:08:06;;;;;;;3.67;1.68;;;;;;;;;;356519;149;865460;-62
2021/06/19 02:09:08;;;;;;;5.79;1.54;;;;;;;;;;357051;150;865643;-62
2021/06/19 02:10:12;;;;;;;4.18;1.95;;;;;;;;;;342037;154;866584;-63
2021/06/19 02:11:13;;;;;;;4.63;1.76;;;;;;;;;;341772;157;857645;-62
2021/06/19 02:12:15;;;;;;;6.50;1.93;;;;;;;;;;340705;156;857874;-62
2021/06/19 02:13:17;;;;;;;9.45;2.13;;;;;;;;;;342489;155;857297;-62
2021/06/19 02:14:19;;;;;;;6.87;1.76;;;;;;;;;;349657;154;857786;-62
2021/06/19 02:15:21;;;;;;;6.09;1.94;;;;;;;;;;348879;153;865398;-62
2021/06/19 02:16:23;;;;;;;5.89;1.64;;;;;;;;;;349261;153;857279;-62
2021/06/19 02:17:24;;;;;;;6.45;2.13;;;;;;;;;;350011;154;857505;-62
2021/06/19 02:18:26;;;;;;;7.27;1.91;;;;;;;;;;345710;152;857318;-62
2021/06/19 02:19:27;;;;;;;5.96;1.86;;;;;;;;;;350070;154;857246;-62
2021/06/19 02:20:29;;;;;;;5.19;1.67;;;;;;;;;;349905;152;857295;-62
2021/06/19 02:21:31;;;;;;;7.37;1.99;;;;;;;;;;347787;153;857265;-62
2021/06/19 02:22:33;;;;;;;4.66;1.86;;;;;;;;;;350072;154;857290;-62
2021/06/19 02:23:35;;;;;;;3.42;1.59;;;;;;;;;;348684;152;865651;-62
2021/06/19 02:24:37;;;;;;;5.07;1.95;;;;;;;;;;349482;152;858539;-62
2021/06/19 02:25:39;;;;;;;3.87;1.67;;;;;;;;;;346020;154;865282;-62
2021/06/19 02:26:41;;;;;;;6.39;1.70;;;;;;;;;;346846;152;859170;-62
2021/06/19 02:27:47;;;;;;;3.56;2.04;;;;;;;;;;342743;154;857335;-61
2021/06/19 02:28:48;;;;;;;4.21;1.70;;;;;;;;;;344898;154;859110;-61
2021/06/19 02:29:50;;;;;;;5.94;2.16;;;;;;;;;;347189;153;857330;-61
2021/06/19 02:30:58;;;;;;;4.66;1.73;;;;;;;;;;348983;154;857762;-63
2021/06/19 02:31:59;;;;;;;4.26;1.76;;;;;;;;;;349194;151;859554;-62
2021/06/19 02:33:01;;;;;;;3.25;1.81;;;;;;;;;;347654;151;857223;-64
2021/06/19 02:34:02;;;;;;;6.14;1.50;;;;;;;;;;347947;153;859273;-64
2021/06/19 02:35:05;;;;;;;5.91;2.06;;;;;;;;;;345554;154;864807;-64
2021/06/19 02:36:07;;;;;;;3.33;1.89;;;;;;;;;;349047;151;864877;-62
2021/06/19 02:37:09;;;;;;;6.19;2.07;;;;;;;;;;348222;151;858649;-62
2021/06/19 02:38:10;;;;;;;6.01;1.89;;;;;;;;;;344616;151;864796;-63
2021/06/19 02:39:12;;;;;;;2.93;1.81;;;;;;;;;;346516;151;857175;-61
2021/06/19 02:40:14;;;;;;;2.88;2.20;;;;;;;;;;348686;153;857192;-64
2021/06/19 02:41:15;;;;;;;3.87;1.86;;;;;;;;;;349025;151;857299;-61
2021/06/19 02:42:17;;;;;;;6.20;1.98;;;;;;;;;;347889;153;859640;-62
2021/06/19 02:43:19;;;;;;;4.34;2.09;;;;;;;;;;345385;153;857366;-61
2021/06/19 02:44:21;;;;;;;3.43;2.12;;;;;;;;;;344157;154;858640;-61
2021/06/19 02:45:22;;;;;;;8.35;2.10;;;;;;;;;;348803;153;858126;-61
2021/06/19 02:46:24;;;;;;;6.79;2.11;;;;;;;;;;348587;151;860683;-62
2021/06/19 02:47:25;;;;;;;3.09;1.83;;;;;;;;;;348211;151;857515;-60
2021/06/19 02:48:27;;;;;;;3.90;1.93;;;;;;;;;;349478;153;859324;-61
2021/06/19 02:49:29;;;;;;;3.19;1.71;;;;;;;;;;342749;154;858137;-62
2021/06/19 02:50:33;;;;;;;3.16;1.81;;;;;;;;;;341062;156;857977;-65
2021/06/19 02:51:35;;;;;;;2.66;2.12;;;;;;;;;;347285;152;860017;-64
2021/06/19 02:52:43;;;;;;;4.39;1.76;;;;;;;;;;349399;152;858914;-63
2021/06/19 02:53:45;;;;;;;4.94;1.95;;;;;;;;;;350783;153;857324;-64
2021/06/19 02:54:47;;;;;;;2.84;1.71;;;;;;;;;;349142;153;857854;-66
2021/06/19 02:55:48;;;;;;;3.99;1.75;;;;;;;;;;349298;152;866722;-63
2021/06/19 02:56:50;;;;;;;4.47;1.76;;;;;;;;;;343548;155;858895;-64
2021/06/19 02:57:52;;;;;;;6.37;2.21;;;;;;;;;;339682;155;865609;-65
2021/06/19 02:58:53;;;;;;;3.56;2.09;;;;;;;;;;346181;153;858145;-65
2021/06/19 02:59:55;;;;;;;7.74;1.89;;;;;;;;;;350653;153;858239;-65
2021/06/19 03:00:56;;;;;;;4.06;1.67;;;;;;;;;;352811;150;858192;-65
2021/06/19 03:01:58;;;;;;;3.61;1.89;;;;;;;;;;355823;150;865404;-65
2021/06/19 03:03:01;;;;;;;2.63;1.91;;;;;;;;;;350264;152;861463;-66
2021/06/19 03:04:02;;;;;;;6.45;2.13;;;;;;;;;;348207;152;859741;-66
2021/06/19 03:05:05;;;;;;;4.13;1.91;;;;;;;;;;352160;152;866216;-66
2021/06/19 03:06:07;;;;;;;4.41;2.08;;;;;;;;;;348996;153;865207;-65
2021/06/19 03:07:09;;;;;;;4.03;2.01;;;;;;;;;;347439;154;858151;-66
2021/06/19 03:08:10;;;;;;;5.01;2.12;;;;;;;;;;347011;152;857289;-66
2021/06/19 03:09:12;;;;;;;2.86;2.02;;;;;;;;;;348100;152;857514;-66
2021/06/19 03:10:16;;;;;;;6.63;2.03;;;;;;;;;;351035;153;857871;-66
2021/06/19 03:11:17;;;;;;;6.13;2.24;;;;;;;;;;346029;153;858871;-62
2021/06/19 03:12:19;;;;;;;4.54;2.05;;;;;;;;;;348791;152;857176;-63
2021/06/19 03:13:20;;;;;;;4.29;2.19;;;;;;;;;;350519;153;857334;-65
2021/06/19 03:14:22;;;;;;;6.25;1.82;;;;;;;;;;349291;153;857245;-63
2021/06/19 03:15:24;;;;;;;2.38;1.81;;;;;;;;;;346007;153;857132;-63
2021/06/19 03:16:26;;;;;;;5.25;1.85;;;;;;;;;;346557;153;864569;-63
2021/06/19 03:17:28;;;;;;;6.03;2.54;;;;;;;;;;350616;153;857205;-64
2021/06/19 03:18:29;;;;;;;7.07;1.69;;;;;;;;;;350968;152;865688;-65
2021/06/19 03:19:31;;;;;;;11.07;2.14;;;;;;;;;;350648;152;858289;-65
2021/06/19 03:20:34;;;;;;;6.03;2.54;;;;;;;;;;348289;153;860744;-66
2021/06/19 03:21:36;;;;;;;5.92;1.83;;;;;;;;;;350210;152;859223;-62
2021/06/19 03:22:54;;;;;;;5.14;1.94;;;;;;;;;;349987;153;860373;-65
2021/06/19 03:23:55;;;;;;;4.99;1.87;;;;;;;;;;348263;153;857860;-65
2021/06/19 03:24:57;;;;;;;3.26;1.91;;;;;;;;;;352534;152;857237;-64
2021/06/19 03:25:58;;;;;;;6.97;1.83;;;;;;;;;;350376;152;858777;-65
2021/06/19 03:27:00;;;;;;;7.35;2.33;;;;;;;;;;343710;153;859002;-65
2021/06/19 03:28:03;;;;;;;4.11;1.89;;;;;;;;;;346343;151;866522;-64
2021/06/19 03:29:07;;;;;;;5.60;1.89;;;;;;;;;;350913;151;859561;-62
2021/06/19 03:30:09;;;;;;;3.63;1.69;;;;;;;;;;352453;151;858799;-62
2021/06/19 03:31:11;;;;;;;3.41;1.81;;;;;;;;;;362101;148;859602;-61
2021/06/19 03:32:13;;;;;;;5.91;2.06;;;;;;;;;;357311;149;858686;-64
2021/06/19 03:33:15;;;;;;;6.72;1.92;;;;;;;;;;355427;150;857171;-64
2021/06/19 03:34:16;;;;;;;7.77;2.32;;;;;;;;;;352901;152;857181;-64
2021/06/19 03:35:18;;;;;;;4.35;1.92;;;;;;;;;;358682;148;857227;-62
2021/06/19 03:36:20;;;;;;;4.47;1.87;;;;;;;;;;359323;148;857226;-63
2021/06/19 03:37:22;;;;;;;4.77;1.83;;;;;;;;;;357628;148;857197;-61
2021/06/19 03:38:23;;;;;;;3.95;1.80;;;;;;;;;;359171;149;857282;-61
2021/06/19 03:39:25;;;;;;;2.90;1.71;;;;;;;;;;359230;150;858836;-63
2021/06/19 03:40:28;;;;;;;5.52;1.73;;;;;;;;;;357135;149;859083;-64
2021/06/19 03:41:29;;;;;;;2.51;1.67;;;;;;;;;;358634;149;857238;-63
2021/06/19 03:42:31;;;;;;;4.99;1.58;;;;;;;;;;358754;148;857843;-63
2021/06/19 03:43:33;;;;;;;13.20;3.08;;;;;;;;;;357663;149;859880;-62
2021/06/19 03:44:34;;;;;;;3.46;1.78;;;;;;;;;;358544;149;859057;-64
2021/06/19 03:45:36;;;;;;;3.15;1.85;;;;;;;;;;359136;149;860969;-64
2021/06/19 03:46:39;;;;;;;8.18;1.79;;;;;;;;;;358055;149;857518;-62
2021/06/19 03:47:41;;;;;;;5.66;1.79;;;;;;;;;;359566;149;859077;-63
2021/06/19 03:48:42;;;;;;;5.39;2.02;;;;;;;;;;358336;149;866223;-62
2021/06/19 03:49:44;;;;;;;8.08;1.82;;;;;;;;;;356342;149;865889;-63
2021/06/19 03:50:48;;;;;;;6.79;1.71;;;;;;;;;;356509;150;860441;-61
2021/06/19 03:51:49;;;;;;;6.02;1.54;;;;;;;;;;358295;149;857205;-61
2021/06/19 03:52:51;;;;;;;7.21;1.80;;;;;;;;;;357907;149;864671;-60
2021/06/19 03:53:53;;;;;;;5.13;1.57;;;;;;;;;;358161;149;857353;-61
2021/06/19 03:54:54;;;;;;;6.06;1.79;;;;;;;;;;358231;149;857216;-61
2021/06/19 03:55:56;;;;;;;6.04;1.59;;;;;;;;;;357911;149;859504;-61
2021/06/19 03:56:58;;;;;;;4.60;1.67;;;;;;;;;;359355;149;858890;-61
2021/06/19 03:58:00;;;;;;;4.03;1.76;;;;;;;;;;358795;149;857741;-59
2021/06/19 03:59:02;;;;;;;3.92;1.95;;;;;;;;;;359228;148;868693;-60
2021/06/19 04:00:05;;;;;;;3.27;1.88;;;;;;;;;;358988;147;858077;-64
2021/06/19 04:01:06;;;;;;;4.55;1.81;;;;;;;;;;359320;149;864762;-63
2021/06/19 04:02:08;;;;;;;4.66;1.76;;;;;;;;;;360721;147;859505;-64
2021/06/19 04:03:09;;;;;;;5.03;1.79;;;;;;;;;;361909;147;857356;-62
2021/06/19 04:04:11;;;;;;;4.96;1.46;;;;;;;;;;355700;148;857288;-66
2021/06/19 04:05:13;;;;;;;2.97;1.69;;;;;;;;;;356759;149;857334;-60
2021/06/19 04:06:16;;;;;;;5.40;1.77;;;;;;;;;;358519;149;857254;-61
2021/06/19 04:07:19;;;;;;;3.03;1.63;;;;;;;;;;361471;149;857327;-60
2021/06/19 04:08:21;;;;;;;4.62;1.78;;;;;;;;;;359477;149;865099;-61
2021/06/19 04:09:22;;;;;;;8.91;2.10;;;;;;;;;;358767;148;857340;-60
2021/06/19 04:10:25;;;;;;;4.73;1.67;;;;;;;;;;359199;148;858966;-62
2021/06/19 04:11:27;;;;;;;2.72;1.58;;;;;;;;;;357687;149;865424;-61
2021/06/19 04:12:29;;;;;;;4.99;2.00;;;;;;;;;;356397;149;857801;-60
2021/06/19 04:13:31;;;;;;;6.19;2.04;;;;;;;;;;357595;149;859377;-59
2021/06/19 04:14:33;;;;;;;3.63;1.61;;;;;;;;;;358258;148;858929;-60
2021/06/19 04:15:34;;;;;;;2.84;1.57;;;;;;;;;;356654;149;860869;-60
2021/06/19 04:16:37;;;;;;;3.22;1.38;;;;;;;;;;358758;149;864508;-60
2021/06/19 04:17:39;;;;;;;2.97;1.84;;;;;;;;;;358923;149;858991;-60
2021/06/19 04:18:40;;;;;;;6.58;1.65;;;;;;;;;;355376;149;857408;-61
2021/06/19 04:19:42;;;;;;;3.86;1.54;;;;;;;;;;356736;149;857426;-61
2021/06/19 04:20:43;;;;;;;4.01;1.48;;;;;;;;;;359105;149;857386;-60
2021/06/19 04:21:45;;;;;;;3.68;1.24;;;;;;;;;;357644;148;863687;-62
2021/06/19 04:22:47;;;;;;;5.08;1.39;;;;;;;;;;356136;149;857373;-60
2021/06/19 04:23:49;;;;;;;5.91;1.25;;;;;;;;;;358423;149;858151;-60
2021/06/19 04:24:50;;;;;;;4.94;1.66;;;;;;;;;;360300;148;858187;-60
2021/06/19 04:25:52;;;;;;;6.34;1.79;;;;;;;;;;357290;149;864695;-60
2021/06/19 04:26:54;;;;;;;5.11;1.30;;;;;;;;;;357169;149;857213;-61
2021/06/19 04:27:57;;;;;;;6.31;1.34;;;;;;;;;;358674;149;857359;-61
2021/06/19 04:28:58;;;;;;;4.01;1.53;;;;;;;;;;357079;149;857133;-60
2021/06/19 04:30:01;;;;;;;8.37;1.50;;;;;;;;;;356898;149;864516;-61
2021/06/19 04:31:03;;;;;;;6.38;1.71;;;;;;;;;;358366;149;857353;-61
2021/06/19 04:32:06;;;;;;;7.09;1.79;;;;;;;;;;358846;149;857370;-60
2021/06/19 04:33:07;;;;;;;5.93;1.50;;;;;;;;;;359223;149;857315;-60
2021/06/19 04:34:10;;;;;;;12.16;2.28;;;;;;;;;;358464;147;858872;-62
2021/06/19 04:35:13;;;;;;;8.65;1.79;;;;;;;;;;359980;149;857851;-61
2021/06/19 04:36:17;;;;;;;8.79;1.24;;;;;;;;;;359577;149;858697;-59
2021/06/19 04:37:18;;;;;;;5.59;1.44;;;;;;;;;;358973;149;865547;-60
2021/06/19 04:38:20;;;;;;;2.86;1.51;;;;;;;;;;359715;148;858956;-59
2021/06/19 04:39:22;;;;;;;5.45;1.68;;;;;;;;;;359522;147;858671;-59
2021/06/19 04:40:39;;;;;;;6.19;1.55;;;;;;;;;;359071;147;859011;-59
2021/06/19 04:41:57;;;;;;;7.19;1.86;;;;;;;;;;354674;151;857234;-60
2021/06/19 04:42:46;;;;;;;7.66;1.52;;;;;;;;;;349233;150;857453;-59
2021/06/19 04:45:06;;;;;;;4.29;1.52;;;;;;;;;;357697;149;865111;-59
2021/06/19 04:46:05;;;;;;;3.18;1.22;;;;;;;;;;354729;149;857281;-59
2021/06/19 04:47:07;;;;;;;3.79;1.04;;;;;;;;;;356117;149;859297;-59
2021/06/19 04:48:09;;;;;;;2.43;1.35;;;;;;;;;;358343;149;864387;-58
2021/06/19 04:49:11;;;;;;;6.70;1.37;;;;;;;;;;358547;149;865871;-59
2021/06/19 04:50:13;;;;;;;8.58;1.28;;;;;;;;;;359857;149;858996;-59
2021/06/19 04:51:15;;;;;;;5.49;1.40;;;;;;;;;;358075;149;858622;-58
2021/06/19 04:52:16;;;;;;;5.06;1.63;;;;;;;;;;356392;149;864686;-59
2021/06/19 04:53:18;;;;;;;4.05;1.46;;;;;;;;;;357346;150;857302;-59
2021/06/19 04:54:20;;;;;;;2.51;1.44;;;;;;;;;;358312;149;859045;-58
2021/06/19 04:55:22;;;;;;;4.77;1.47;;;;;;;23.85;100.00;64781.86;357426;149;859035;-60
2021/06/19 04:56:25;;;;;;;4.08;1.27;;;;;;;;;;358551;149;859053;-59
2021/06/19 04:57:27;;;;;;;4.19;1.34;;;;;;;;;;360184;149;858136;-59
2021/06/19 04:58:28;;;;;;;4.26;1.20;;;;;;;;;;357126;150;857279;-59
2021/06/19 04:59:30;;;;;;;3.83;1.35;;;;;;;;;;358324;148;864437;-59
2021/06/19 05:00:33;;;;;;;4.14;1.60;;;;;;;;;;357424;147;857292;-59
2021/06/19 05:01:35;;;;;;;6.87;1.39;;;;;;;;;;359180;150;857773;-59
2021/06/19 05:02:37;;;;;;;5.28;1.31;;;;;;;;;;359295;149;865764;-59
2021/06/19 05:03:39;;;;;;;10.91;2.33;;;;;;;;;;359545;148;859969;-59
2021/06/19 05:04:40;;;;;;;5.33;1.51;;;;;;;;;;359421;149;865076;-59
2021/06/19 05:05:42;;;;;;;4.06;1.48;;;;;;;;;;357436;148;866634;-59
2021/06/19 05:06:43;;;;;;;3.11;1.29;;;;;;;;;;359375;148;858297;-60
2021/06/19 05:07:45;;;;;;;4.72;1.15;;;;;;;;;;358362;149;864641;-60
2021/06/19 05:08:47;;;;;;;3.94;1.25;;;;;;;;;;356324;149;859046;-60
2021/06/19 05:09:48;;;;;;;5.75;1.50;;;;;;;;;;358979;149;859417;-59
2021/06/19 05:10:50;;;;;;;5.33;1.50;;;;;;;;;;358227;150;857763;-59
2021/06/19 05:11:52;;;;;;;4.54;1.38;;;;;;;;;;357344;149;857957;-61
2021/06/19 05:12:55;;;;;;;5.16;1.91;;;;;;;;;;356767;148;857215;-59
2021/06/19 05:13:58;;;;;;;2.32;1.34;;;;;;;;;;351068;152;857264;-60
2021/06/19 05:15:00;;;;;;;3.56;1.52;;;;;;;;;;351588;150;857398;-61
2021/06/19 05:16:02;;;;;;;8.03;1.43;;;;;;;;;;359131;150;859421;-60
2021/06/19 05:17:03;;;;;;;9.79;1.49;;;;;;;;;;357724;148;859456;-59
2021/06/19 05:18:05;;;;;;;9.85;1.24;;;;;;;;;;357176;149;857283;-59
2021/06/19 05:19:07;;;;;;;3.61;1.51;;;;;;;;;;356962;149;857360;-60
2021/06/19 05:20:10;;;;;;;7.24;1.86;;;;;;;;;;357088;149;866230;-59
2021/06/19 05:21:11;;;;;;;8.40;2.16;;;;;;;;;;357674;150;857300;-60
2021/06/19 05:22:13;;;;;;;3.52;1.30;;;;;;;;;;358768;150;858218;-61
2021/06/19 05:23:15;;;;;;;5.02;1.55;;;;;;;;;;356230;148;857223;-61
2021/06/19 05:24:17;;;;;;;4.26;1.35;;;;;;;;;;358703;149;857330;-63
2021/06/19 05:25:18;;;;;;;6.65;2.00;;;;;;;;;;359182;148;857963;-61
2021/06/19 05:26:22;;;;;;;6.77;1.87;;;;;;;;;;358454;149;859654;-62
2021/06/19 05:27:23;;;;;;;4.36;1.45;;;;;;;;;;359291;150;866336;-60
2021/06/19 05:28:25;;;;;;;3.81;1.62;;;;;;;;;;356681;149;858646;-60
2021/06/19 05:29:26;;;;;;;5.22;1.54;;;;;;;;;;358308;149;857399;-61
2021/06/19 05:30:30;;;;;;;3.44;1.36;;;;;;;;;;358197;149;857310;-62
2021/06/19 05:31:32;;;;;;;6.57;1.73;;;;;;;;;;357612;149;858326;-61
2021/06/19 05:32:33;;;;;;;3.24;1.71;;;;;;;;;;355172;148;857230;-61
2021/06/19 05:33:35;;;;;;;5.81;1.57;;;;;;;;;;360605;147;857227;-61
2021/06/19 05:34:37;;;;;;;5.28;1.56;;;;;;;;;;358294;147;857400;-61
2021/06/19 05:35:39;;;;;;;4.04;1.45;;;;;;;;;;351559;150;859155;-60
2021/06/19 05:36:41;;;;;;;3.61;1.28;;;;;;;;;;357863;149;859153;-60
2021/06/19 05:37:42;;;;;;;6.18;1.37;;;;;;;;;;356249;149;859244;-59
2021/06/19 05:38:44;;;;;;;6.14;1.57;;;;;;;;;;354777;150;857500;-59
2021/06/19 05:39:46;;;;;;;7.01;1.66;;;;;;;;;;359130;149;859412;-59
2021/06/19 05:40:47;;;;;;;3.66;1.69;;;;;;;;;;361178;140;855984;-60
2021/06/19 05:41:49;;;;;;;6.24;1.72;;;;;;;;;;369106;142;864440;-59
2021/06/19 05:42:53;;;;;;;4.69;1.41;;;;;;;;;;367614;143;857212;-61
2021/06/19 05:43:57;;;;;;;10.29;2.05;;;;;;;;;;365670;145;857179;-60
2021/06/19 05:44:59;;;;;;;4.49;1.68;;;;;;;;;;370537;145;858841;-59
2021/06/19 05:46:01;;;;;;;6.32;1.87;;;;;;;;;;368839;143;859708;-59
2021/06/19 05:47:03;;;;;;;4.00;1.63;;;;;;;;;;367141;145;858295;-61
2021/06/19 05:48:05;;;;;;;6.77;1.51;;;;;;;;;;370644;144;857405;-60
2021/06/19 05:49:07;;;;;;;7.77;1.76;;;;;;;;;;368538;143;864759;-59
2021/06/19 05:50:10;;;;;;;2.99;1.62;;;;;;;;;;369969;143;857763;-60
2021/06/19 05:51:11;;;;;;;3.99;1.41;;;;;;;;;;368527;143;857967;-59
2021/06/19 05:52:13;;;;;;;3.76;1.56;;;;;;;;;;368134;143;859352;-59
2021/06/19 05:53:14;;;;;;;5.62;1.85;;;;;;;;;;367823;145;857302;-60
2021/06/19 05:54:16;;;;;;;2.95;1.64;;;;;;;;;;369874;143;857185;-62
2021/06/19 05:55:18;;;;;;;2.89;1.50;;;;;;;;;;369552;143;857339;-61
2021/06/19 05:56:20;;;;;;;4.55;1.65;;;;;;;;;;369713;145;857181;-63
2021/06/19 05:57:21;;;;;;;9.11;2.05;;;;;;;;;;369788;143;857295;-60
2021/06/19 05:58:23;;;;;;;3.36;1.63;;;;;;;;;;371097;143;858210;-60
2021/06/19 05:59:24;;;;;;;7.20;1.51;;;;;;;;;;369545;143;857430;-61
2021/06/19 06:00:27;;;;;;;5.37;1.68;;;;;;;;;;362625;145;858030;-61
2021/06/19 06:01:32;;;;;;;3.57;1.42;;;;;;;;;;359655;147;858786;-58
2021/06/19 06:02:34;;;;;;;4.95;1.58;;;;;;;;;;362682;147;865144;-61
2021/06/19 06:03:35;;;;;;;3.18;1.39;;;;;;;;;;362120;145;857264;-60
2021/06/19 06:04:37;;;;;;;4.35;1.66;;;;;;;;;;362329;147;864615;-59
2021/06/19 06:05:38;;;;;;;4.17;1.42;;;;;;;;;;363373;147;857969;-61
2021/06/19 06:06:42;;;;;;;4.22;1.32;;;;;;;;;;361248;145;859587;-61
2021/06/19 06:07:43;;;;;;;7.79;1.59;;;;;;;;;;362437;146;860508;-61